Time;durP1;ratioP1;P1;durP2;ratioP2;P2;SDS_P1;SDS_P2;PMS_P1;PMS_P2;Temp;Humidity;BMP_temperature;BMP_pressure;BME280_temperature;BME280_humidity;BME280_pressure;Samples;Min_cycle;Max_cycle;Signal;HPM_P1;HPM_P2
2021/01/17 00:00:19;;;;;;;14.30;10.60;;;-1.00;99.90;;;;;;5094590;28;20176;-67
2021/01/17 00:02:46;;;;;;;18.43;12.23;;;-1.00;99.90;;;;;;5094271;28;20204;-66
2021/01/17 00:05:13;;;;;;;21.00;12.53;;;-1.00;99.90;;;;;;5092818;28;20979;-66
2021/01/17 00:07:40;;;;;;;17.77;11.40;;;-0.80;99.90;;;;;;5091908;28;20418;-66
2021/01/17 00:10:09;;;;;;;17.77;11.20;;;-0.80;99.90;;;;;;5093248;28;20484;-67
2021/01/17 00:12:36;;;;;;;16.27;10.53;;;-0.80;99.90;;;;;;5103780;28;20450;-66
2021/01/17 00:15:02;;;;;;;16.60;10.97;;;-0.90;99.90;;;;;;5078971;28;20434;-67
2021/01/17 00:17:27;;;;;;;16.17;11.67;;;-0.90;99.90;;;;;;5111708;28;20440;-67
2021/01/17 00:19:54;;;;;;;17.47;11.50;;;-0.90;99.90;;;;;;5098739;28;20427;-66
2021/01/17 00:22:21;;;;;;;18.73;10.90;;;-0.90;99.90;;;;;;5094292;28;20588;-66
2021/01/17 00:24:46;;;;;;;17.67;11.00;;;-0.80;99.90;;;;;;5097126;28;20457;-65
2021/01/17 00:27:13;;;;;;;19.60;12.83;;;-0.80;99.90;;;;;;5069927;28;20428;-65
2021/01/17 00:29:39;;;;;;;18.30;11.47;;;-0.90;99.90;;;;;;5103184;28;20433;-65
2021/01/17 00:32:12;;;;;;;15.97;11.30;;;-0.90;99.90;;;;;;5105607;28;20457;-66
2021/01/17 00:34:38;;;;;;;16.43;10.93;;;-1.00;99.90;;;;;;5107720;28;20525;-65
2021/01/17 00:37:04;;;;;;;16.33;9.87;;;-1.00;99.90;;;;;;5109225;28;20428;-66
2021/01/17 00:39:30;;;;;;;18.30;11.17;;;-1.10;99.90;;;;;;5101728;28;20787;-66
2021/01/17 00:41:56;;;;;;;13.50;9.57;;;-1.00;99.90;;;;;;5091552;28;20766;-66
2021/01/17 00:44:21;;;;;;;15.80;11.43;;;-1.10;99.90;;;;;;5091734;28;20253;-65
2021/01/17 00:46:47;;;;;;;15.20;10.77;;;-1.10;99.90;;;;;;5107900;28;20468;-66
2021/01/17 00:49:12;;;;;;;14.27;10.90;;;-1.20;99.90;;;;;;5109085;28;20176;-65
2021/01/17 00:51:42;;;;;;;13.93;10.37;;;-1.10;99.90;;;;;;5104109;28;20281;-68
2021/01/17 00:54:08;;;;;;;16.10;9.40;;;-1.10;99.90;;;;;;5092296;28;20184;-66
2021/01/17 00:56:34;;;;;;;16.90;10.57;;;-1.10;99.90;;;;;;5091738;28;20465;-65
2021/01/17 00:58:59;;;;;;;15.63;10.60;;;-1.10;99.90;;;;;;5072833;28;20461;-65
2021/01/17 01:01:25;;;;;;;17.90;11.30;;;-1.00;99.90;;;;;;5091452;28;20175;-65
2021/01/17 01:03:50;;;;;;;21.73;13.83;;;-1.00;99.90;;;;;;5091216;28;20172;-66
2021/01/17 01:06:20;;;;;;;17.40;12.53;;;-1.10;99.90;;;;;;5098975;28;20215;-67
2021/01/17 01:08:46;;;;;;;17.67;12.17;;;-1.10;99.90;;;;;;5089147;28;20695;-65
2021/01/17 01:11:20;;;;;;;21.83;14.10;;;-1.20;99.90;;;;;;5082481;28;20455;-66
2021/01/17 01:13:47;;;;;;;25.00;14.20;;;-1.20;99.90;;;;;;5091226;28;20424;-65
2021/01/17 01:16:13;;;;;;;17.33;12.40;;;-1.30;99.90;;;;;;5106195;28;20461;-66
2021/01/17 01:18:39;;;;;;;22.13;14.00;;;-1.30;99.90;;;;;;5097097;28;20429;-66
2021/01/17 01:21:04;;;;;;;24.63;14.03;;;-1.30;99.90;;;;;;5111362;28;20437;-68
2021/01/17 01:23:30;;;;;;;21.80;14.23;;;-1.20;99.90;;;;;;5102257;28;20192;-66
2021/01/17 01:25:59;;;;;;;18.97;13.57;;;-1.10;99.90;;;;;;5091713;28;20724;-65
2021/01/17 01:28:25;;;;;;;24.80;14.33;;;-1.10;99.90;;;;;;5103834;28;20216;-68
2021/01/17 01:30:53;;;;;;;23.60;15.20;;;-1.10;99.90;;;;;;5102141;28;20513;-68
2021/01/17 01:33:19;;;;;;;37.50;15.57;;;-1.10;99.90;;;;;;5104310;28;20457;-67
2021/01/17 01:35:45;;;;;;;22.30;14.30;;;-1.10;99.90;;;;;;5096277;28;20437;-65
2021/01/17 01:38:10;;;;;;;21.20;14.83;;;-1.00;99.90;;;;;;5109506;28;20657;-65
2021/01/17 01:40:36;;;;;;;25.97;15.87;;;-1.00;99.90;;;;;;5098576;28;20441;-66
2021/01/17 01:43:01;;;;;;;24.50;15.20;;;-1.10;99.90;;;;;;5091850;28;20196;-66
2021/01/17 01:45:27;;;;;;;24.10;15.37;;;-1.10;99.90;;;;;;5105808;28;20207;-67
2021/01/17 01:47:52;;;;;;;21.50;14.73;;;-1.00;99.90;;;;;;5100958;28;20701;-65
2021/01/17 01:50:19;;;;;;;19.07;13.80;;;-1.10;99.90;;;;;;5081883;28;20171;-66
2021/01/17 01:52:45;;;;;;;21.57;13.20;;;-1.20;99.90;;;;;;5098352;28;20200;-66
2021/01/17 01:55:12;;;;;;;23.50;14.30;;;-1.20;99.90;;;;;;5097557;28;20460;-68
2021/01/17 01:57:38;;;;;;;19.83;13.97;;;-1.20;99.90;;;;;;5097644;28;20487;-66
2021/01/17 02:00:07;;;;;;;20.80;13.60;;;-1.20;99.90;;;;;;5101417;28;20434;-66
2021/01/17 02:02:41;;;;;;;22.83;13.87;;;-1.10;99.90;;;;;;5093007;28;20222;-66
2021/01/17 02:05:08;;;;;;;20.10;14.17;;;-1.10;99.90;;;;;;5096842;28;21011;-66
2021/01/17 02:08:05;;;;;;;23.07;15.03;;;-1.10;99.90;;;;;;5095979;28;20430;-66
2021/01/17 02:10:31;;;;;;;19.80;13.63;;;-1.20;99.90;;;;;;5092095;28;20442;-66
2021/01/17 02:13:03;;;;;;;21.57;14.03;;;-1.20;99.90;;;;;;5087158;28;20964;-66
2021/01/17 02:15:33;;;;;;;22.33;15.00;;;-1.20;99.90;;;;;;5099701;28;20466;-65
2021/01/17 02:18:04;;;;;;;22.07;13.30;;;-1.10;99.90;;;;;;5081237;28;20433;-67
2021/01/17 02:20:32;;;;;;;24.50;14.77;;;-1.10;99.90;;;;;;5108487;28;20516;-68
2021/01/17 02:22:58;;;;;;;20.23;14.20;;;-1.00;99.90;;;;;;5096911;28;20559;-66
2021/01/17 02:25:25;;;;;;;21.97;14.30;;;-1.10;99.90;;;;;;5090834;28;20458;-66
2021/01/17 02:27:52;;;;;;;20.03;13.83;;;-1.20;99.90;;;;;;5104751;28;20418;-66
2021/01/17 02:30:19;;;;;;;23.80;15.70;;;-1.20;99.90;;;;;;5104412;28;21044;-65
2021/01/17 02:32:48;;;;;;;24.07;15.10;;;-1.40;99.90;;;;;;5101201;28;20456;-65
2021/01/17 02:35:14;;;;;;;25.07;15.70;;;-1.40;99.90;;;;;;5099217;28;20444;-66
2021/01/17 02:38:01;;;;;;;28.07;16.67;;;-1.50;99.90;;;;;;5107059;28;20429;-67
2021/01/17 02:41:00;;;;;;;24.53;14.93;;;-1.50;99.90;;;;;;5094176;28;20424;-66
2021/01/17 02:43:27;;;;;;;22.27;14.67;;;-1.40;99.90;;;;;;5091050;28;20488;-66
2021/01/17 02:45:52;;;;;;;23.87;15.33;;;-1.40;99.90;;;;;;5096162;28;20471;-67
2021/01/17 02:48:18;;;;;;;21.60;14.87;;;-1.30;99.90;;;;;;5108144;28;20429;-66
2021/01/17 02:50:43;;;;;;;25.27;15.47;;;-1.30;99.90;;;;;;5089079;28;20168;-65
2021/01/17 02:53:18;;;;;;;22.33;13.77;;;-1.30;99.90;;;;;;5095697;28;20216;-66
2021/01/17 02:55:45;;;;;;;21.20;14.10;;;-1.20;99.90;;;;;;5096581;28;20178;-66
2021/01/17 02:58:12;;;;;;;23.80;15.40;;;-1.20;99.90;;;;;;5093522;28;20442;-66
2021/01/17 03:00:40;;;;;;;22.07;14.97;;;-1.30;99.90;;;;;;5102870;28;20496;-65
2021/01/17 03:03:08;;;;;;;24.10;15.97;;;-1.40;99.90;;;;;;5095683;28;20576;-66
2021/01/17 03:05:35;;;;;;;24.37;15.30;;;-1.40;99.90;;;;;;5096648;28;20476;-66
2021/01/17 03:08:04;;;;;;;27.53;15.57;;;-1.40;99.90;;;;;;5112521;28;20441;-66
2021/01/17 03:10:30;;;;;;;28.50;16.07;;;-1.40;99.90;;;;;;5113595;28;20440;-66
2021/01/17 03:12:59;;;;;;;22.80;15.10;;;-1.40;99.90;;;;;;5112126;28;20815;-65
2021/01/17 03:15:25;;;;;;;25.13;16.00;;;-1.40;99.90;;;;;;5110676;28;20309;-66
2021/01/17 03:17:51;;;;;;;29.50;15.60;;;-1.40;99.90;;;;;;5099892;28;21053;-65
2021/01/17 03:20:16;;;;;;;25.30;16.87;;;-1.40;99.90;;;;;;5093757;28;20438;-66
2021/01/17 03:22:42;;;;;;;30.47;17.67;;;-1.40;99.90;;;;;;5101633;28;20555;-66
2021/01/17 03:25:08;;;;;;;24.50;17.00;;;-1.40;99.90;;;;;;5108557;28;20583;-68
2021/01/17 03:27:33;;;;;;;24.63;16.17;;;-1.40;99.90;;;;;;5094588;28;20187;-66
2021/01/17 03:29:59;;;;;;;24.10;14.60;;;-1.40;99.90;;;;;;5112420;28;20425;-67
2021/01/17 03:32:24;;;;;;;26.33;15.87;;;-1.50;99.90;;;;;;5113114;28;20199;-66
2021/01/17 03:34:50;;;;;;;24.70;15.07;;;-1.40;99.90;;;;;;5104831;28;20194;-66
2021/01/17 03:37:17;;;;;;;25.00;16.30;;;-1.30;99.90;;;;;;5096445;28;20210;-68
2021/01/17 03:39:43;;;;;;;29.17;16.33;;;-1.30;99.90;;;;;;5109505;28;20188;-66
2021/01/17 03:42:10;;;;;;;25.23;14.43;;;-1.20;99.90;;;;;;5099622;28;20458;-66
2021/01/17 03:44:37;;;;;;;19.90;14.77;;;-1.20;99.90;;;;;;5104018;28;21006;-67
2021/01/17 03:47:03;;;;;;;27.67;16.47;;;-1.30;99.90;;;;;;5077510;28;20435;-66
2021/01/17 03:49:29;;;;;;;23.23;15.53;;;-1.40;99.90;;;;;;5096758;28;20431;-66
2021/01/17 03:51:54;;;;;;;25.17;16.77;;;-1.40;99.90;;;;;;5111450;28;20537;-66
2021/01/17 03:54:20;;;;;;;25.70;14.83;;;-1.50;99.90;;;;;;5107122;28;20187;-66
2021/01/17 03:56:46;;;;;;;27.57;16.60;;;-1.50;99.90;;;;;;5103935;28;20187;-66
2021/01/17 03:59:12;;;;;;;27.80;17.23;;;-1.40;99.90;;;;;;5112568;28;20171;-66
2021/01/17 04:01:38;;;;;;;28.57;16.97;;;-1.40;99.90;;;;;;5109432;28;20476;-66
2021/01/17 04:04:04;;;;;;;27.47;17.80;;;-1.40;99.90;;;;;;5112438;28;20433;-68
2021/01/17 04:06:29;;;;;;;23.17;15.57;;;-1.40;99.90;;;;;;5103038;28;20200;-66
2021/01/17 04:08:55;;;;;;;24.97;16.23;;;-1.40;99.90;;;;;;5105852;28;20189;-66
2021/01/17 04:11:20;;;;;;;26.60;16.10;;;-1.30;99.90;;;;;;5111884;28;20225;-66
2021/01/17 04:13:46;;;;;;;19.43;15.10;;;-1.30;99.90;;;;;;5098717;28;20168;-66
2021/01/17 04:16:11;;;;;;;21.50;14.10;;;-1.30;99.90;;;;;;5107489;28;20175;-67
2021/01/17 04:18:37;;;;;;;26.67;15.70;;;-1.20;99.90;;;;;;5103912;28;20179;-66
2021/01/17 04:21:02;;;;;;;28.30;15.67;;;-1.30;99.90;;;;;;5105026;28;20172;-66
2021/01/17 04:23:28;;;;;;;22.67;15.40;;;-1.20;99.90;;;;;;5106426;28;20195;-67
2021/01/17 04:25:53;;;;;;;21.43;15.30;;;-1.20;99.90;;;;;;5097601;28;20260;-66
2021/01/17 04:28:20;;;;;;;26.27;14.23;;;-1.20;99.90;;;;;;5096842;28;20165;-65
2021/01/17 04:30:45;;;;;;;23.67;15.37;;;-1.20;99.90;;;;;;5095769;28;20193;-65
2021/01/17 04:33:11;;;;;;;21.77;16.10;;;-1.10;99.90;;;;;;5103907;28;20941;-66
2021/01/17 04:35:37;;;;;;;24.07;14.90;;;-1.20;99.90;;;;;;5103708;28;20180;-66
2021/01/17 04:38:02;;;;;;;25.10;15.67;;;-1.20;99.90;;;;;;5106309;28;20178;-68
2021/01/17 04:40:29;;;;;;;26.30;16.13;;;-1.10;99.90;;;;;;5110022;28;20176;-66
2021/01/17 04:43:07;;;;;;;26.00;16.83;;;-1.00;99.90;;;;;;5110281;28;20204;-67
2021/01/17 04:45:33;;;;;;;20.83;14.90;;;-0.90;99.90;;;;;;5104112;28;21061;-66
2021/01/17 04:47:59;;;;;;;21.60;15.20;;;-0.80;99.90;;;;;;5097682;28;21129;-65
2021/01/17 04:50:26;;;;;;;25.30;15.13;;;-0.80;99.90;;;;;;5106784;28;20417;-66
2021/01/17 04:53:03;;;;;;;28.07;15.43;;;-0.80;99.90;;;;;;5094529;28;20469;-66
2021/01/17 04:55:30;;;;;;;22.47;14.30;;;-0.80;99.90;;;;;;5096177;28;20801;-68
2021/01/17 04:58:19;;;;;;;27.73;17.50;;;-0.80;99.90;;;;;;5101209;28;20486;-66
2021/01/17 05:01:08;;;;;;;19.80;13.97;;;-0.90;99.90;;;;;;5096040;28;20487;-67
2021/01/17 05:04:04;;;;;;;23.60;13.80;;;-0.80;99.90;;;;;;5077635;28;20493;-67
2021/01/17 05:06:33;;;;;;;21.37;13.53;;;-0.90;99.90;;;;;;5097569;28;20959;-66
2021/01/17 05:09:03;;;;;;;27.77;16.80;;;-0.90;99.90;;;;;;5108776;28;20429;-67
2021/01/17 05:11:39;;;;;;;24.83;14.90;;;-0.80;99.90;;;;;;5105517;28;20956;-66
2021/01/17 05:14:33;;;;;;;24.90;16.50;;;-0.70;99.90;;;;;;5098141;28;20425;-67
2021/01/17 05:16:58;;;;;;;22.60;14.10;;;-0.70;99.90;;;;;;5106243;28;20429;-66
2021/01/17 05:19:24;;;;;;;22.60;15.00;;;-0.60;99.90;;;;;;5095566;28;20429;-67
2021/01/17 05:21:51;;;;;;;19.77;15.13;;;-0.60;99.90;;;;;;5105746;28;20191;-66
2021/01/17 05:24:20;;;;;;;25.83;15.90;;;-0.50;99.90;;;;;;5107854;28;20171;-66
2021/01/17 05:26:56;;;;;;;22.37;16.17;;;-0.60;99.90;;;;;;5102476;28;20464;-66
2021/01/17 05:29:23;;;;;;;25.80;15.10;;;-0.60;99.90;;;;;;5106756;28;20452;-66
2021/01/17 05:31:52;;;;;;;26.70;16.57;;;-0.60;99.90;;;;;;5108651;28;20457;-66
2021/01/17 05:34:18;;;;;;;27.43;16.50;;;-0.60;99.90;;;;;;5086407;28;21111;-66
2021/01/17 05:36:44;;;;;;;21.40;15.23;;;-0.50;99.90;;;;;;5102837;28;20433;-66
2021/01/17 05:39:10;;;;;;;28.60;15.97;;;-0.50;99.90;;;;;;5109207;28;20184;-66
2021/01/17 05:41:35;;;;;;;22.00;15.70;;;-0.50;99.90;;;;;;5096655;28;20874;-67
2021/01/17 05:44:01;;;;;;;23.33;16.37;;;-0.50;99.90;;;;;;5107624;28;20653;-66
2021/01/17 05:46:27;;;;;;;25.70;17.37;;;-0.40;99.90;;;;;;5100962;28;20653;-66
2021/01/17 05:49:12;;;;;;;24.43;15.83;;;-0.40;99.90;;;;;;5095100;28;20180;-65
2021/01/17 05:51:38;;;;;;;26.43;16.07;;;-0.40;99.90;;;;;;5072548;28;20282;-67
2021/01/17 05:54:09;;;;;;;24.07;17.80;;;-0.40;99.90;;;;;;5093172;28;20529;-66
2021/01/17 05:56:37;;;;;;;25.80;16.70;;;-0.40;99.90;;;;;;5093280;28;20247;-66
2021/01/17 05:59:04;;;;;;;27.97;16.50;;;-0.40;99.90;;;;;;5094219;28;20425;-66
2021/01/17 06:01:33;;;;;;;22.73;17.33;;;-0.30;99.90;;;;;;5098154;28;20434;-66
2021/01/17 06:04:08;;;;;;;27.87;18.10;;;-0.30;99.90;;;;;;5090430;28;20524;-66
2021/01/17 06:06:34;;;;;;;28.10;17.10;;;-0.30;99.90;;;;;;5106668;28;20453;-66
2021/01/17 06:09:01;;;;;;;25.27;15.70;;;-0.40;99.90;;;;;;5104504;28;20505;-66
2021/01/17 06:11:27;;;;;;;31.27;17.80;;;-0.40;99.90;;;;;;5090334;28;20472;-66
2021/01/17 06:13:55;;;;;;;26.40;17.43;;;-0.40;99.90;;;;;;5098169;28;20438;-66
2021/01/17 06:16:37;;;;;;;25.00;17.17;;;-0.30;99.90;;;;;;5097699;28;20424;-66
2021/01/17 06:19:08;;;;;;;25.90;17.90;;;-0.40;99.90;;;;;;5089367;28;20494;-66
2021/01/17 06:21:35;;;;;;;30.33;17.80;;;-0.50;99.90;;;;;;5072783;28;20462;-66
2021/01/17 06:24:02;;;;;;;26.63;17.53;;;-0.60;99.90;;;;;;5095001;28;20433;-67
2021/01/17 06:26:33;;;;;;;37.03;21.27;;;-0.60;99.90;;;;;;5085750;28;20482;-66
2021/01/17 06:29:00;;;;;;;29.97;18.50;;;-0.60;99.90;;;;;;5113858;28;20422;-69
2021/01/17 06:31:28;;;;;;;23.80;16.53;;;-0.60;99.90;;;;;;5106631;28;20820;-67
2021/01/17 06:34:09;;;;;;;26.83;17.43;;;-0.50;99.90;;;;;;5102652;28;20428;-66
2021/01/17 06:36:40;;;;;;;28.47;19.10;;;-0.40;99.90;;;;;;5110324;28;20507;-68
2021/01/17 06:39:21;;;;;;;29.80;18.50;;;-0.40;99.90;;;;;;5093898;28;20433;-67
2021/01/17 06:41:49;;;;;;;34.20;20.73;;;-0.40;99.90;;;;;;5105132;28;20491;-68
2021/01/17 06:44:15;;;;;;;33.33;19.73;;;-0.50;99.90;;;;;;5105856;28;20436;-68
2021/01/17 06:46:46;;;;;;;31.90;20.53;;;-0.60;99.90;;;;;;5111768;28;20836;-66
2021/01/17 06:49:25;;;;;;;29.00;18.53;;;-0.80;99.90;;;;;;5093827;28;20255;-67
2021/01/17 06:51:53;;;;;;;32.53;20.97;;;-0.80;99.90;;;;;;5094688;28;20471;-67
2021/01/17 06:54:21;;;;;;;32.33;20.83;;;-0.90;99.90;;;;;;5100507;28;20495;-66
2021/01/17 06:56:51;;;;;;;29.13;19.17;;;-0.90;99.90;;;;;;5100603;28;20814;-67
2021/01/17 06:59:35;;;;;;;36.60;20.47;;;-0.90;99.90;;;;;;5105254;28;20424;-66
2021/01/17 07:02:13;;;;;;;33.77;20.90;;;-0.90;99.90;;;;;;5107385;28;20453;-67
2021/01/17 07:04:44;;;;;;;34.17;21.93;;;-0.90;99.90;;;;;;5102863;28;20433;-67
2021/01/17 07:07:28;;;;;;;37.40;20.97;;;-0.80;99.90;;;;;;5097140;28;20550;-67
2021/01/17 07:10:07;;;;;;;33.33;22.17;;;-0.80;99.90;;;;;;5076143;28;20426;-67
2021/01/17 07:13:12;;;;;;;35.03;22.13;;;-0.80;99.90;;;;;;5071993;28;20478;-67
2021/01/17 07:15:40;;;;;;;36.70;19.47;;;-0.80;99.90;;;;;;5111842;28;20437;-68
2021/01/17 07:18:12;;;;;;;33.60;21.10;;;-0.70;99.90;;;;;;5111947;28;20518;-66
2021/01/17 07:20:46;;;;;;;31.77;21.97;;;-0.60;99.90;;;;;;5105596;28;20434;-66
2021/01/17 07:23:17;;;;;;;36.07;21.70;;;-0.50;99.90;;;;;;5105376;28;20453;-67
2021/01/17 07:25:44;;;;;;;29.73;19.03;;;-0.50;99.90;;;;;;5111430;28;20472;-66
2021/01/17 07:28:18;;;;;;;34.57;22.47;;;-0.50;99.90;;;;;;5112742;28;20421;-66
2021/01/17 07:30:56;;;;;;;33.70;19.17;;;-0.50;99.90;;;;;;5097294;28;20491;-68
2021/01/17 07:33:26;;;;;;;30.03;18.37;;;-0.40;99.90;;;;;;5105131;28;20574;-68
2021/01/17 07:35:54;;;;;;;33.03;19.90;;;-0.50;99.90;;;;;;5093089;28;20538;-67
2021/01/17 07:38:27;;;;;;;33.33;21.57;;;-0.60;99.90;;;;;;5112579;28;20441;-67
2021/01/17 07:41:02;;;;;;;33.67;20.97;;;-0.60;99.90;;;;;;5098460;28;20539;-67
2021/01/17 07:43:44;;;;;;;34.70;21.77;;;-0.70;99.90;;;;;;5092647;28;20494;-67
2021/01/17 07:46:11;;;;;;;33.93;21.50;;;-0.60;99.90;;;;;;5082267;28;20457;-68
2021/01/17 07:48:37;;;;;;;32.50;19.87;;;-0.60;99.90;;;;;;5093599;28;20441;-66
2021/01/17 07:51:08;;;;;;;35.13;22.50;;;-0.60;99.90;;;;;;5104543;28;20430;-66
2021/01/17 07:53:36;;;;;;;30.17;21.70;;;-0.60;99.90;;;;;;5107568;28;20978;-68
2021/01/17 07:56:15;;;;;;;34.67;22.30;;;-0.60;99.90;;;;;;5098189;28;20433;-67
2021/01/17 07:58:49;;;;;;;30.80;20.40;;;-0.50;99.90;;;;;;5111786;28;20969;-66
2021/01/17 08:01:36;;;;;;;39.30;20.97;;;-0.40;99.90;;;;;;5109015;28;20456;-67
2021/01/17 08:04:01;;;;;;;35.83;21.27;;;-0.40;99.90;;;;;;5094948;28;20521;-67
2021/01/17 08:06:36;;;;;;;31.67;21.20;;;-0.30;99.90;;;;;;5101267;28;20584;-67
2021/01/17 08:09:01;;;;;;;34.97;22.80;;;-0.30;99.90;;;;;;5101078;28;20246;-67
2021/01/17 08:11:56;;;;;;;34.30;20.27;;;-0.20;99.90;;;;;;5111400;28;20873;-67
2021/01/17 08:14:33;;;;;;;33.23;20.93;;;-0.10;99.90;;;;;;5094635;28;20250;-67
2021/01/17 08:17:13;;;;;;;36.10;21.80;;;0.00;99.90;;;;;;5105267;28;20443;-67
2021/01/17 08:19:40;;;;;;;33.87;21.80;;;0.20;99.90;;;;;;5097812;28;20788;-67
2021/01/17 08:22:17;;;;;;;31.40;21.80;;;0.30;99.90;;;;;;5093236;28;20537;-67
2021/01/17 08:24:43;;;;;;;28.10;20.67;;;0.40;99.90;;;;;;5110702;28;20435;-68
2021/01/17 08:27:27;;;;;;;29.43;20.30;;;0.40;99.90;;;;;;5099659;28;20434;-67
2021/01/17 08:30:08;;;;;;;33.50;19.50;;;0.40;99.90;;;;;;5100585;28;20176;-67
2021/01/17 08:32:37;;;;;;;28.57;19.93;;;0.60;99.90;;;;;;5096714;28;20452;-67
2021/01/17 08:35:15;;;;;;;35.20;21.20;;;0.60;99.90;;;;;;5108440;28;20506;-67
2021/01/17 08:37:41;;;;;;;31.20;20.50;;;0.60;99.90;;;;;;5099670;28;20512;-67
2021/01/17 08:40:08;;;;;;;33.00;20.30;;;0.60;99.90;;;;;;5103210;28;20907;-68
2021/01/17 08:42:37;;;;;;;37.83;22.30;;;0.60;99.90;;;;;;5093762;28;20832;-68
2021/01/17 08:45:23;;;;;;;31.00;20.57;;;0.60;99.90;;;;;;5091109;28;20991;-68
2021/01/17 08:48:23;;;;;;;41.13;22.13;;;0.60;99.90;;;;;;5075066;28;20442;-68
2021/01/17 08:50:54;;;;;;;31.63;18.93;;;0.60;99.90;;;;;;5094450;28;20490;-67
2021/01/17 08:53:29;;;;;;;33.27;21.13;;;0.70;99.90;;;;;;5086227;28;20450;-67
2021/01/17 08:56:01;;;;;;;31.33;20.27;;;0.80;99.90;;;;;;5091103;28;20833;-67
2021/01/17 08:58:27;;;;;;;29.00;21.53;;;0.90;99.90;;;;;;5098808;28;20453;-67
2021/01/17 09:00:52;;;;;;;35.53;22.13;;;1.00;99.90;;;;;;5090604;28;20433;-67
2021/01/17 09:03:35;;;;;;;37.27;22.23;;;1.10;99.90;;;;;;5088132;28;20926;-67
2021/01/17 09:06:22;;;;;;;37.07;23.03;;;1.20;99.90;;;;;;5089369;28;20625;-67
2021/01/17 09:08:48;;;;;;;31.37;19.70;;;1.20;99.90;;;;;;5074569;28;20472;-67
2021/01/17 09:11:29;;;;;;;33.13;22.77;;;1.30;99.90;;;;;;5089668;28;20461;-67
2021/01/17 09:14:18;;;;;;;33.37;21.23;;;1.40;99.90;;;;;;5102822;28;20262;-67
2021/01/17 09:16:45;;;;;;;32.80;21.37;;;1.40;99.90;;;;;;5097097;28;20459;-67
2021/01/17 09:19:11;;;;;;;33.20;21.60;;;1.50;99.90;;;;;;5091678;28;20429;-67
2021/01/17 09:21:38;;;;;;;31.43;22.20;;;1.60;99.90;;;;;;5078313;28;20605;-67
2021/01/17 09:24:15;;;;;;;27.30;17.90;;;1.60;99.90;;;;;;5084380;28;20437;-67
2021/01/17 09:26:45;;;;;;;29.53;20.40;;;1.70;99.90;;;;;;5099964;28;21216;-67
2021/01/17 09:29:23;;;;;;;31.73;19.67;;;1.60;99.90;;;;;;5105136;28;20432;-67
2021/01/17 09:31:54;;;;;;;32.10;21.60;;;1.60;99.90;;;;;;5067091;28;20450;-67
2021/01/17 09:34:26;;;;;;;31.60;22.30;;;1.60;99.90;;;;;;5081122;28;20430;-67
2021/01/17 09:36:52;;;;;;;34.23;21.87;;;1.80;99.90;;;;;;5089710;28;20438;-67
2021/01/17 09:39:26;;;;;;;35.17;22.07;;;1.80;99.90;;;;;;5094692;28;20465;-67
2021/01/17 09:41:53;;;;;;;30.40;19.10;;;1.90;99.90;;;;;;5101370;28;20557;-67
2021/01/17 09:44:18;;;;;;;29.70;19.27;;;2.00;99.90;;;;;;5105920;28;20893;-67
2021/01/17 09:46:44;;;;;;;33.73;21.43;;;1.90;99.90;;;;;;5087276;28;20461;-67
2021/01/17 09:49:10;;;;;;;30.73;22.30;;;2.10;99.90;;;;;;5095775;28;20424;-67
2021/01/17 09:51:36;;;;;;;34.40;21.17;;;2.30;99.90;;;;;;5099547;28;20198;-67
2021/01/17 09:54:03;;;;;;;26.70;19.17;;;2.30;99.90;;;;;;5091913;28;20951;-67
2021/01/17 09:56:29;;;;;;;25.63;17.83;;;2.30;99.90;;;;;;5104518;28;20464;-67
2021/01/17 09:58:55;;;;;;;26.00;16.70;;;2.50;99.90;;;;;;5103262;28;20440;-67
2021/01/17 10:01:21;;;;;;;22.93;14.80;;;2.50;99.90;;;;;;5099048;28;20929;-67
2021/01/17 10:03:48;;;;;;;23.53;17.20;;;2.50;99.90;;;;;;5091724;28;20449;-67
2021/01/17 10:06:17;;;;;;;27.67;17.93;;;2.60;99.90;;;;;;5093076;28;20467;-67
2021/01/17 10:08:46;;;;;;;25.97;16.00;;;2.60;99.90;;;;;;5093073;28;20433;-67
2021/01/17 10:11:11;;;;;;;23.43;16.03;;;2.70;99.90;;;;;;5092308;28;20422;-67
2021/01/17 10:13:46;;;;;;;21.60;15.60;;;2.70;99.90;;;;;;5091453;28;20436;-67
2021/01/17 10:16:20;;;;;;;22.77;16.80;;;2.70;99.90;;;;;;5105162;28;20694;-68
2021/01/17 10:18:45;;;;;;;24.83;17.00;;;2.70;99.90;;;;;;5090876;28;20469;-67
2021/01/17 10:21:11;;;;;;;21.97;16.37;;;2.70;99.90;;;;;;5098429;28;20514;-67
2021/01/17 10:23:38;;;;;;;22.67;16.93;;;2.70;99.90;;;;;;5100441;28;20304;-67
2021/01/17 10:26:03;;;;;;;21.87;16.23;;;2.80;99.90;;;;;;5070794;28;20591;-67
2021/01/17 10:28:29;;;;;;;26.17;17.97;;;2.80;99.90;;;;;;5089876;28;20433;-67
2021/01/17 10:30:59;;;;;;;24.53;16.90;;;2.80;99.90;;;;;;5111597;28;20637;-68
2021/01/17 10:33:29;;;;;;;25.70;17.10;;;2.90;99.90;;;;;;5110261;28;20210;-67
2021/01/17 10:35:55;;;;;;;20.57;15.50;;;2.80;99.90;;;;;;5097915;28;20932;-67
2021/01/17 10:38:21;;;;;;;20.10;14.33;;;2.90;99.90;;;;;;5110899;28;20440;-67
2021/01/17 10:40:48;;;;;;;20.90;15.80;;;2.80;99.90;;;;;;5103064;28;20186;-67
2021/01/17 10:43:29;;;;;;;21.43;15.47;;;2.90;99.90;;;;;;5103114;28;20192;-67
2021/01/17 10:46:08;;;;;;;25.07;17.47;;;2.90;99.90;;;;;;5098109;28;20857;-67
2021/01/17 10:48:56;;;;;;;23.53;13.90;;;2.90;99.90;;;;;;5112118;28;20433;-67
2021/01/17 10:51:29;;;;;;;21.17;15.30;;;3.00;99.90;;;;;;5062934;28;20425;-67
2021/01/17 10:53:59;;;;;;;23.23;13.80;;;3.10;99.90;;;;;;5110547;28;20428;-67
2021/01/17 10:56:27;;;;;;;22.07;14.97;;;3.10;99.90;;;;;;5102444;28;20442;-67
2021/01/17 10:58:56;;;;;;;15.60;12.77;;;3.10;99.90;;;;;;5095684;28;20429;-67
2021/01/17 11:01:33;;;;;;;21.87;15.13;;;3.00;99.90;;;;;;5099460;28;20425;-67
2021/01/17 11:04:01;;;;;;;21.27;14.50;;;2.80;99.90;;;;;;5114011;28;20443;-67
2021/01/17 11:06:29;;;;;;;20.37;14.07;;;2.80;99.90;;;;;;5097772;28;20575;-67
2021/01/17 11:08:57;;;;;;;20.87;13.80;;;2.90;99.90;;;;;;5100927;28;20475;-67
2021/01/17 11:11:27;;;;;;;19.40;12.87;;;3.00;99.90;;;;;;5108042;28;20729;-67
2021/01/17 11:14:01;;;;;;;19.53;14.27;;;2.90;99.90;;;;;;5102527;28;20942;-67
2021/01/17 11:16:44;;;;;;;22.70;14.00;;;3.00;99.90;;;;;;5097679;28;20458;-67
2021/01/17 11:19:11;;;;;;;25.53;16.70;;;3.10;99.90;;;;;;5061758;28;20931;-67
2021/01/17 11:21:38;;;;;;;18.00;13.10;;;3.30;99.90;;;;;;5106497;28;20473;-67
2021/01/17 11:24:05;;;;;;;14.70;11.60;;;3.30;99.90;;;;;;5090912;28;20828;-67
2021/01/17 11:26:31;;;;;;;14.20;11.37;;;3.30;99.90;;;;;;5091319;28;20458;-67
2021/01/17 11:28:59;;;;;;;13.87;10.27;;;3.30;99.90;;;;;;5112993;28;20567;-67
2021/01/17 11:31:27;;;;;;;16.20;11.70;;;3.30;99.90;;;;;;5108415;28;20505;-67
2021/01/17 11:33:52;;;;;;;15.83;10.80;;;3.30;99.90;;;;;;5093983;28;20426;-67
2021/01/17 11:36:26;;;;;;;15.27;10.03;;;3.40;99.90;;;;;;5099902;28;20990;-67
2021/01/17 11:38:59;;;;;;;16.83;11.53;;;3.40;99.90;;;;;;5109297;28;20175;-68
2021/01/17 11:41:55;;;;;;;13.27;9.90;;;3.40;99.90;;;;;;5102010;28;20452;-68
2021/01/17 11:44:22;;;;;;;13.07;10.77;;;3.30;99.90;;;;;;5087924;28;20494;-68
2021/01/17 11:46:48;;;;;;;18.13;11.50;;;3.40;99.90;;;;;;5106008;28;20457;-68
2021/01/17 11:49:14;;;;;;;21.00;11.70;;;3.30;99.90;;;;;;5092564;28;20480;-66
2021/01/17 11:51:41;;;;;;;21.37;13.93;;;3.20;99.90;;;;;;5076233;28;20451;-67
2021/01/17 11:54:21;;;;;;;20.80;13.60;;;3.20;99.90;;;;;;5111763;28;20425;-67
2021/01/17 11:56:48;;;;;;;18.27;11.27;;;3.30;99.90;;;;;;5101265;28;20464;-67
2021/01/17 11:59:30;;;;;;;18.27;13.93;;;3.40;99.90;;;;;;5111122;28;20436;-67
2021/01/17 12:01:55;;;;;;;16.40;11.83;;;3.70;99.90;;;;;;5099827;28;20464;-67
2021/01/17 12:04:26;;;;;;;26.30;17.20;;;3.50;99.90;;;;;;5092824;28;20438;-67
2021/01/17 12:07:03;;;;;;;20.87;14.57;;;3.30;99.90;;;;;;5098961;28;20651;-67
2021/01/17 12:09:28;;;;;;;21.03;16.00;;;3.20;99.90;;;;;;5112369;28;20439;-68
2021/01/17 12:11:54;;;;;;;19.40;13.90;;;3.20;99.90;;;;;;5096681;28;20450;-68
2021/01/17 12:14:30;;;;;;;15.40;13.30;;;3.20;99.90;;;;;;5094181;28;20239;-68
2021/01/17 12:16:59;;;;;;;18.30;12.63;;;3.30;99.90;;;;;;5104555;28;20242;-68
2021/01/17 12:19:26;;;;;;;17.37;13.13;;;3.20;99.90;;;;;;5101188;28;20566;-69
2021/01/17 12:21:57;;;;;;;16.10;12.40;;;3.30;99.90;;;;;;5109189;28;20460;-69
2021/01/17 12:24:23;;;;;;;15.80;12.60;;;3.30;99.90;;;;;;5098412;28;21030;-68
2021/01/17 12:26:50;;;;;;;15.93;10.13;;;3.20;99.90;;;;;;5095746;28;20541;-68
2021/01/17 12:29:16;;;;;;;13.60;11.33;;;3.10;99.90;;;;;;5101945;28;20690;-68
2021/01/17 12:31:43;;;;;;;12.37;9.33;;;3.10;99.90;;;;;;5107035;28;20442;-68
2021/01/17 12:34:09;;;;;;;10.40;7.50;;;3.10;99.90;;;;;;5096826;28;20430;-68
2021/01/17 12:36:42;;;;;;;9.83;7.70;;;3.00;99.90;;;;;;5108921;28;20514;-68
2021/01/17 12:39:10;;;;;;;12.00;8.90;;;3.10;99.90;;;;;;5104584;28;20488;-68
2021/01/17 12:41:40;;;;;;;12.73;8.87;;;3.10;99.90;;;;;;5093701;28;20458;-68
2021/01/17 12:44:06;;;;;;;11.63;8.67;;;3.20;99.90;;;;;;5104415;28;20456;-68